createdAt,value
2023-03-21T00:00:42.115Z,3.63
2023-03-21T00:03:49.438Z,3.50
2023-03-21T00:06:55.003Z,4.07
2023-03-21T00:10:12.435Z,4.23
2023-03-21T00:13:20.430Z,4.40
2023-03-21T00:16:30.357Z,4.27
2023-03-21T00:19:42.176Z,3.87
2023-03-21T00:22:47.290Z,4.33
2023-03-21T00:25:52.404Z,4.77
2023-03-21T00:28:57.570Z,3.80
2023-03-21T00:32:02.657Z,4.17
2023-03-21T00:35:43.950Z,6.07
2023-03-21T00:38:35.342Z,3.97
2023-03-21T00:41:43.109Z,3.87
2023-03-21T00:44:48.438Z,4.07
2023-03-21T00:47:53.730Z,4.23
2023-03-21T00:51:00.906Z,4.43
2023-03-21T00:54:06.565Z,3.87
2023-03-21T00:57:11.843Z,3.60
2023-03-21T01:00:18.659Z,4.33
2023-03-21T01:03:26.721Z,4.27
2023-03-21T01:06:33.711Z,4.03
2023-03-21T01:09:38.976Z,4.30
2023-03-21T01:12:44.020Z,4.90
2023-03-21T01:15:51.358Z,4.60
2023-03-21T01:18:56.557Z,3.83
2023-03-21T01:22:03.283Z,4.30
2023-03-21T01:25:21.994Z,3.30
2023-03-21T01:28:29.424Z,4.03
2023-03-21T01:31:34.590Z,3.40
2023-03-21T01:34:39.706Z,3.13
2023-03-21T01:37:46.618Z,3.13
2023-03-21T01:40:52.678Z,2.93
2023-03-21T01:44:02.697Z,3.53
2023-03-21T01:47:18.062Z,3.47
2023-03-21T01:50:44.204Z,3.33
2023-03-21T01:54:19.130Z,2.90
2023-03-21T01:57:42.174Z,3.57
2023-03-21T02:00:52.753Z,3.57
2023-03-21T02:04:22.465Z,3.30
2023-03-21T02:07:44.010Z,3.57
2023-03-21T02:10:55.997Z,3.40
2023-03-21T02:14:26.686Z,3.37
2023-03-21T02:17:58.140Z,3.73
2023-03-21T02:22:03.369Z,3.83
2023-03-21T02:25:50.283Z,3.70
2023-03-21T02:29:00.143Z,3.27
2023-03-21T02:32:20.265Z,3.40
2023-03-21T02:35:54.443Z,3.77
2023-03-21T02:39:09.112Z,3.10
2023-03-21T02:42:19.834Z,2.83
2023-03-21T02:45:28.078Z,3.13
2023-03-21T02:48:50.257Z,2.77
2023-03-21T02:52:00.253Z,2.90
2023-03-21T02:55:16.471Z,4.00
2023-03-21T02:58:30.283Z,3.90
2023-03-21T03:01:37.498Z,3.97
2023-03-21T03:04:43.239Z,3.23
2023-03-21T03:08:08.983Z,3.30
2023-03-21T03:11:24.825Z,2.77
2023-03-21T03:15:00.178Z,3.40
2023-03-21T03:18:14.791Z,4.77
2023-03-21T03:21:23.359Z,2.93
2023-03-21T03:24:30.737Z,3.90
2023-03-21T03:27:40.676Z,3.80
2023-03-21T03:31:05.132Z,3.13
2023-03-21T03:34:21.081Z,3.37
2023-03-21T03:37:29.047Z,2.93
2023-03-21T03:40:41.218Z,3.20
2023-03-21T03:44:10.864Z,2.77
2023-03-21T03:47:32.395Z,3.33
2023-03-21T03:50:41.659Z,3.23
2023-03-21T03:53:54.179Z,2.57
2023-03-21T03:57:02.491Z,3.30
2023-03-21T04:00:12.231Z,3.73
2023-03-21T04:03:23.728Z,4.60
2023-03-21T04:06:30.217Z,3.70
2023-03-21T04:09:44.142Z,2.90
2023-03-21T04:12:53.294Z,2.63
2023-03-21T04:16:25.998Z,6.33
2023-03-21T04:19:32.554Z,2.60
2023-03-21T04:22:38.108Z,3.20
2023-03-21T04:25:55.559Z,4.13
2023-03-21T04:29:06.153Z,2.70
2023-03-21T04:32:45.010Z,2.77
2023-03-21T04:35:56.380Z,3.10
2023-03-21T04:39:05.250Z,3.07
2023-03-21T04:42:12.166Z,4.20
2023-03-21T04:45:18.168Z,3.30
2023-03-21T04:48:26.270Z,3.00
2023-03-21T04:51:31.578Z,3.43
2023-03-21T04:54:37.047Z,2.87
2023-03-21T04:57:42.249Z,3.60
2023-03-21T05:00:47.819Z,3.40
2023-03-21T05:03:54.373Z,3.73
2023-03-21T05:06:59.475Z,3.87
2023-03-21T05:10:05.035Z,12.30
2023-03-21T05:13:11.310Z,8.10
2023-03-21T05:16:16.438Z,11.23
2023-03-21T05:19:26.021Z,14.03
2023-03-21T05:22:40.523Z,6.87
2023-03-21T05:25:49.803Z,8.57
2023-03-21T05:29:01.241Z,12.30
2023-03-21T05:32:06.905Z,14.20
2023-03-21T05:35:13.980Z,12.60
2023-03-21T05:38:19.495Z,6.93
2023-03-21T05:41:29.215Z,11.03
2023-03-21T05:44:37.685Z,10.63
2023-03-21T05:47:44.814Z,17.03
2023-03-21T05:50:54.587Z,13.03
2023-03-21T05:54:01.059Z,17.73
2023-03-21T05:57:06.388Z,16.20
2023-03-21T06:00:40.362Z,14.47
2023-03-21T06:04:06.102Z,15.13
2023-03-21T06:07:14.526Z,8.43
2023-03-21T06:10:20.439Z,14.80
2023-03-21T06:13:28.652Z,9.70
2023-03-21T06:16:34.390Z,18.40
2023-03-21T06:19:39.499Z,13.70
2023-03-21T06:22:50.562Z,19.47
2023-03-21T06:25:55.875Z,23.43
2023-03-21T06:29:03.749Z,23.90
2023-03-21T06:32:09.371Z,21.57
2023-03-21T06:35:15.165Z,24.27
2023-03-21T06:38:23.147Z,21.07
2023-03-21T06:41:28.458Z,25.53
2023-03-21T06:44:41.144Z,18.40
2023-03-21T06:47:51.232Z,10.63
2023-03-21T06:51:06.487Z,6.07
2023-03-21T06:54:18.036Z,6.77
2023-03-21T06:57:27.956Z,5.10
2023-03-21T07:00:33.893Z,5.53
2023-03-21T07:03:39.862Z,4.53
2023-03-21T07:06:45.124Z,5.13
2023-03-21T07:09:51.859Z,4.53
2023-03-21T07:12:57.231Z,5.00
2023-03-21T07:16:12.446Z,4.43
2023-03-21T07:19:17.629Z,4.17
2023-03-21T07:22:23.005Z,6.37
2023-03-21T07:25:29.783Z,4.40
2023-03-21T07:28:35.387Z,6.20
2023-03-21T07:31:42.279Z,3.93
2023-03-21T07:34:47.436Z,4.30
2023-03-21T07:37:52.703Z,4.60
2023-03-21T07:41:01.089Z,3.97
2023-03-21T07:44:09.832Z,3.97
2023-03-21T07:47:15.247Z,4.23
2023-03-21T07:50:21.088Z,3.97
2023-03-21T07:53:26.229Z,4.20
2023-03-21T07:56:32.832Z,4.67
2023-03-21T07:59:38.094Z,4.63
2023-03-21T08:02:44.292Z,4.73
2023-03-21T08:05:49.550Z,4.10
2023-03-21T08:08:54.644Z,4.87
2023-03-21T08:12:01.116Z,4.33
2023-03-21T08:15:07.110Z,4.13
2023-03-21T08:18:13.249Z,5.17
2023-03-21T08:21:18.513Z,4.00
2023-03-21T08:24:23.544Z,5.70
2023-03-21T08:27:30.301Z,5.67
2023-03-21T08:30:35.501Z,3.77
2023-03-21T08:33:40.812Z,4.20
2023-03-21T08:36:47.213Z,3.93
2023-03-21T08:39:52.774Z,3.63
2023-03-21T08:43:00.109Z,3.77
2023-03-21T08:46:05.502Z,3.93
2023-03-21T08:49:10.644Z,3.73
2023-03-21T08:52:16.156Z,2.90
2023-03-21T08:55:21.797Z,3.53
2023-03-21T08:58:28.446Z,3.10
2023-03-21T09:01:33.805Z,2.97
2023-03-21T09:04:39.006Z,3.17
2023-03-21T09:07:45.026Z,4.70
2023-03-21T09:10:50.255Z,3.90
2023-03-21T09:13:56.921Z,4.80
2023-03-21T09:17:02.134Z,4.93
2023-03-21T09:20:11.393Z,5.60
2023-03-21T09:23:17.084Z,5.03
2023-03-21T09:26:22.577Z,4.23
2023-03-21T09:29:29.260Z,5.87
2023-03-21T09:32:34.640Z,5.70
2023-03-21T09:35:40.423Z,4.33
2023-03-21T09:38:46.831Z,5.07
2023-03-21T09:42:04.729Z,5.47
2023-03-21T09:45:17.661Z,3.83
2023-03-21T09:48:31.913Z,5.23
2023-03-21T09:51:40.046Z,6.33
2023-03-21T09:54:45.546Z,10.57
2023-03-21T09:57:54.453Z,10.77
2023-03-21T10:01:05.367Z,7.30
2023-03-21T10:04:16.790Z,2.00
2023-03-21T10:07:21.945Z,4.67
2023-03-21T10:10:28.919Z,4.73
2023-03-21T10:13:36.811Z,4.43
2023-03-21T10:16:46.232Z,4.03
2023-03-21T10:19:55.318Z,5.53
2023-03-21T10:23:01.890Z,4.90
2023-03-21T10:26:10.273Z,1.33
2023-03-21T10:29:22.579Z,5.00
2023-03-21T10:32:29.245Z,6.30
2023-03-21T10:35:37.525Z,1.87
2023-03-21T10:38:45.809Z,2.03
2023-03-21T10:41:51.254Z,3.13
2023-03-21T10:44:57.882Z,1.70
2023-03-21T10:48:09.833Z,1.70
2023-03-21T10:51:19.441Z,3.77
2023-03-21T10:54:26.834Z,2.30
2023-03-21T10:57:31.912Z,1.50
2023-03-21T11:00:39.113Z,1.47
2023-03-21T11:03:48.308Z,1.57
2023-03-21T11:06:56.995Z,3.45
2023-03-21T11:10:03.965Z,1.40
2023-03-21T11:13:18.405Z,4.90
2023-03-21T11:16:27.546Z,2.80
2023-03-21T11:19:37.811Z,1.93
2023-03-21T11:22:44.608Z,1.10
2023-03-21T11:25:51.352Z,2.33
2023-03-21T11:28:57.488Z,3.38
2023-03-21T11:32:05.323Z,2.88
2023-03-21T11:35:18.904Z,0.87
2023-03-21T11:38:29.104Z,5.80
2023-03-21T11:41:35.814Z,5.60
2023-03-21T11:44:45.749Z,2.20
2023-03-21T11:47:52.427Z,1.10
2023-03-21T11:51:02.474Z,2.72
2023-03-21T11:54:13.107Z,1.50
2023-03-21T11:57:26.777Z,1.00
2023-03-21T12:00:36.886Z,1.95
2023-03-21T12:03:49.761Z,0.77
2023-03-21T12:07:00.714Z,1.08
2023-03-21T12:10:22.528Z,1.37
2023-03-21T12:13:48.949Z,2.03
2023-03-21T12:17:04.318Z,2.85
2023-03-21T12:20:28.217Z,1.13
2023-03-21T12:23:47.967Z,2.60
2023-03-21T12:27:00.207Z,0.85
2023-03-21T12:30:15.418Z,1.25
2023-03-21T12:33:44.193Z,3.83
2023-03-21T12:37:03.458Z,1.52
2023-03-21T12:40:19.064Z,5.75
2023-03-21T12:43:33.467Z,3.78
2023-03-21T12:46:42.959Z,2.67
2023-03-21T12:49:50.520Z,1.20
2023-03-21T12:52:58.987Z,2.60
2023-03-21T12:56:09.120Z,1.38
2023-03-21T12:59:22.228Z,2.35
2023-03-21T13:02:32.853Z,3.33
2023-03-21T13:05:40.590Z,6.78
2023-03-21T13:08:47.940Z,0.93
2023-03-21T13:11:55.647Z,4.25
2023-03-21T13:15:24.982Z,4.72
2023-03-21T13:18:48.940Z,12.70
2023-03-21T13:21:58.915Z,2.30
2023-03-21T13:25:08.536Z,3.05
2023-03-21T13:28:22.009Z,8.45
2023-03-21T13:31:32.033Z,9.75
2023-03-21T13:34:43.773Z,1.85
2023-03-21T13:37:52.925Z,1.80
2023-03-21T13:41:01.975Z,6.82
2023-03-21T13:44:25.596Z,4.28
2023-03-21T13:47:53.134Z,0.93
2023-03-21T13:51:02.849Z,2.67
2023-03-21T13:54:20.084Z,1.80
2023-03-21T13:57:39.853Z,7.07
2023-03-21T14:01:06.491Z,6.90
2023-03-21T14:04:15.609Z,0.80
2023-03-21T14:07:25.313Z,1.42
2023-03-21T14:10:35.184Z,2.92
2023-03-21T14:13:50.507Z,1.95
2023-03-21T14:16:57.923Z,1.00
2023-03-21T14:20:12.159Z,4.68
2023-03-21T14:23:18.992Z,2.75
2023-03-21T14:26:25.524Z,1.13
2023-03-21T14:29:34.131Z,0.80
2023-03-21T14:32:40.704Z,2.20
2023-03-21T14:35:48.181Z,3.05
2023-03-21T14:38:59.816Z,0.90
2023-03-21T14:42:06.958Z,5.72
2023-03-21T14:45:20.676Z,4.00
2023-03-21T14:48:33.324Z,12.90
2023-03-21T14:51:39.192Z,12.50
2023-03-21T14:54:46.939Z,0.80
2023-03-21T14:57:52.213Z,4.60
2023-03-21T15:00:59.088Z,6.60
2023-03-21T15:04:07.706Z,4.40
2023-03-21T15:07:26.224Z,7.53
2023-03-21T15:10:33.094Z,5.38
2023-03-21T15:13:42.159Z,1.58
2023-03-21T15:16:47.374Z,1.55
2023-03-21T15:19:53.954Z,11.75
2023-03-21T15:23:02.402Z,4.32
2023-03-21T15:26:08.507Z,4.22
2023-03-21T15:29:16.209Z,9.05
2023-03-21T15:32:23.399Z,4.10
2023-03-21T15:35:33.569Z,3.63
2023-03-21T15:38:42.813Z,7.28
2023-03-21T15:42:02.791Z,9.05
2023-03-21T15:45:18.738Z,2.92
2023-03-21T15:48:27.181Z,6.78
2023-03-21T15:51:34.200Z,3.13
2023-03-21T15:54:45.767Z,2.45
2023-03-21T15:57:51.150Z,3.80
2023-03-21T16:00:58.108Z,3.03
2023-03-21T16:04:07.837Z,1.10
2023-03-21T16:07:18.198Z,3.20
2023-03-21T16:10:30.218Z,8.10
2023-03-21T16:13:35.346Z,1.73
2023-03-21T16:16:40.858Z,1.65
2023-03-21T16:19:45.941Z,7.55
2023-03-21T16:22:52.790Z,7.63
2023-03-21T16:25:59.063Z,7.40
2023-03-21T16:29:05.524Z,2.00
2023-03-21T16:32:16.422Z,1.40
2023-03-21T16:35:23.598Z,3.00
2023-03-21T16:38:30.247Z,5.37
2023-03-21T16:41:35.780Z,1.70
2023-03-21T16:44:40.937Z,3.30
2023-03-21T16:47:47.361Z,10.80
2023-03-21T16:50:53.378Z,4.87
2023-03-21T16:54:00.444Z,2.73
2023-03-21T16:57:08.026Z,1.50
2023-03-21T17:00:16.835Z,6.57
2023-03-21T17:03:22.103Z,1.00
2023-03-21T17:06:29.726Z,1.07
2023-03-21T17:09:36.536Z,1.10
2023-03-21T17:12:41.626Z,3.33
2023-03-21T17:15:46.987Z,3.30
2023-03-21T17:18:52.966Z,1.53
2023-03-21T17:21:58.098Z,3.77
2023-03-21T17:25:04.903Z,5.40
2023-03-21T17:28:10.372Z,1.20
2023-03-21T17:31:16.759Z,3.63
2023-03-21T17:34:22.214Z,1.40
2023-03-21T17:37:27.239Z,2.90
2023-03-21T17:40:34.681Z,5.53
2023-03-21T17:43:39.906Z,5.47
2023-03-21T17:46:45.234Z,1.30
2023-03-21T17:49:50.285Z,5.83
2023-03-21T17:52:57.439Z,3.90
2023-03-21T17:56:04.110Z,8.93
2023-03-21T17:59:13.068Z,5.33
2023-03-21T18:02:18.406Z,3.73
2023-03-21T18:05:24.869Z,1.70
2023-03-21T18:08:30.128Z,7.90
2023-03-21T18:11:36.767Z,7.50
2023-03-21T18:14:42.566Z,1.80
2023-03-21T18:17:47.930Z,1.83
2023-03-21T18:20:54.630Z,2.57
2023-03-21T18:24:01.185Z,4.97
2023-03-21T18:27:08.801Z,1.30
2023-03-21T18:30:37.336Z,11.73
2023-03-21T18:33:45.274Z,2.30
2023-03-21T18:36:50.449Z,4.37
2023-03-21T18:39:56.292Z,2.47
2023-03-21T18:43:52.542Z,7.20
2023-03-21T18:46:28.542Z,5.77
2023-03-21T18:52:59.199Z,4.77
2023-03-21T18:56:09.647Z,7.30
2023-03-21T18:59:17.554Z,5.67
2023-03-21T19:02:22.693Z,6.07
2023-03-21T19:05:27.880Z,4.20
2023-03-21T19:08:34.813Z,7.00
2023-03-21T19:11:42.251Z,3.27
2023-03-21T19:14:49.073Z,12.77
2023-03-21T19:18:33.985Z,5.93
2023-03-21T19:21:22.001Z,7.43
2023-03-21T19:24:28.945Z,2.67
2023-03-21T19:27:35.862Z,2.47
2023-03-21T19:30:49.809Z,2.33
2023-03-21T19:33:56.074Z,3.03
2023-03-21T19:37:02.631Z,2.30
2023-03-21T19:40:09.245Z,5.73
2023-03-21T19:43:32.138Z,2.60
2023-03-21T19:46:39.444Z,2.37
2023-03-21T19:53:10.386Z,2.43
2023-03-21T19:56:22.413Z,2.93
2023-03-21T19:59:29.201Z,2.43
2023-03-21T20:02:37.174Z,2.20
2023-03-21T20:05:42.847Z,4.60
2023-03-21T20:12:13.525Z,2.67
2023-03-21T20:15:21.638Z,2.90
2023-03-21T20:18:29.829Z,2.43
2023-03-21T20:21:44.439Z,3.17
2023-03-21T20:24:54.265Z,2.70
2023-03-21T20:28:14.445Z,2.67
2023-03-21T20:31:20.859Z,3.13
2023-03-21T20:34:29.400Z,2.70
2023-03-21T20:37:36.398Z,2.67
2023-03-21T20:40:41.845Z,2.70
2023-03-21T20:44:31.482Z,3.13
2023-03-21T20:47:12.448Z,3.40
2023-03-21T20:50:22.102Z,3.87
2023-03-21T20:53:28.582Z,4.70
2023-03-21T20:56:33.650Z,4.80
2023-03-21T20:59:39.398Z,3.50
2023-03-21T21:02:45.857Z,3.37
2023-03-21T21:05:53.830Z,3.40
2023-03-21T21:09:00.211Z,3.30
2023-03-21T21:12:07.449Z,3.73
2023-03-21T21:15:16.400Z,4.03
2023-03-21T21:18:22.234Z,8.90
2023-03-21T21:21:29.066Z,9.30
2023-03-21T21:24:34.331Z,11.20
2023-03-21T21:27:39.701Z,12.17
2023-03-21T21:30:45.109Z,7.83
2023-03-21T21:33:54.251Z,5.93
2023-03-21T21:37:02.218Z,4.97
2023-03-21T21:40:13.289Z,6.07
2023-03-21T21:43:19.760Z,5.00
2023-03-21T21:46:26.273Z,4.37
2023-03-21T21:49:31.536Z,5.70
2023-03-21T21:52:38.640Z,4.03
2023-03-21T21:55:44.270Z,4.23
2023-03-21T21:58:53.354Z,3.70
2023-03-21T22:01:58.682Z,4.03
2023-03-21T22:05:04.004Z,3.87
2023-03-21T22:08:10.781Z,3.87
2023-03-21T22:11:18.649Z,3.60
2023-03-21T22:14:23.846Z,4.00
2023-03-21T22:17:29.152Z,3.97
2023-03-21T22:20:35.056Z,3.47
2023-03-21T22:23:43.319Z,3.23
2023-03-21T22:26:48.496Z,5.27
2023-03-21T22:29:53.674Z,3.30
2023-03-21T22:33:08.823Z,3.20
2023-03-21T22:36:14.606Z,4.03
2023-03-21T22:39:26.109Z,3.83
2023-03-21T22:42:31.479Z,3.50
2023-03-21T22:45:36.743Z,4.00
2023-03-21T22:48:41.904Z,3.20
2023-03-21T22:51:47.042Z,2.97
2023-03-21T22:54:53.820Z,3.10
2023-03-21T22:57:59.117Z,2.67
2023-03-21T23:01:05.297Z,2.93
2023-03-21T23:04:13.221Z,3.00
2023-03-21T23:07:18.850Z,3.20
2023-03-21T23:10:25.653Z,4.20
2023-03-21T23:13:31.547Z,3.00
2023-03-21T23:16:38.393Z,4.37
2023-03-21T23:19:43.714Z,3.63
2023-03-21T23:22:48.854Z,3.17
2023-03-21T23:25:55.860Z,3.37
2023-03-21T23:29:00.950Z,3.27
2023-03-21T23:32:08.558Z,2.57
2023-03-21T23:35:13.799Z,3.43
2023-03-21T23:38:18.966Z,3.30
2023-03-21T23:41:26.492Z,3.63
2023-03-21T23:44:31.875Z,4.20
2023-03-21T23:47:37.049Z,4.10
2023-03-21T23:50:42.353Z,4.93
2023-03-21T23:53:47.686Z,4.23
2023-03-21T23:56:54.137Z,4.80
2023-03-21T23:59:59.896Z,4.67
